sensor_id;sensor_type;location;lat;lon;timestamp;temperature;humidity
78902;DHT22;70441;44.758;37.686;2024-03-22T00:00:26;6.76;77.92
78902;DHT22;70441;44.758;37.686;2024-03-22T00:01:27;6.79;77.93
78902;DHT22;70441;44.758;37.686;2024-03-22T00:02:29;6.85;78.12
78902;DHT22;70441;44.758;37.686;2024-03-22T00:03:30;6.94;77.58
78902;DHT22;70441;44.758;37.686;2024-03-22T00:04:33;6.95;77.21
78902;DHT22;70441;44.758;37.686;2024-03-22T00:05:34;6.94;77.15
78902;DHT22;70441;44.758;37.686;2024-03-22T00:06:35;6.91;77.26
78902;DHT22;70441;44.758;37.686;2024-03-22T00:07:37;6.97;77.84
78902;DHT22;70441;44.758;37.686;2024-03-22T00:08:39;7.09;77.28
78902;DHT22;70441;44.758;37.686;2024-03-22T00:09:41;7.14;76.85
78902;DHT22;70441;44.758;37.686;2024-03-22T00:10:43;7.16;76.80
78902;DHT22;70441;44.758;37.686;2024-03-22T00:11:44;7.19;76.61
78902;DHT22;70441;44.758;37.686;2024-03-22T00:12:46;7.22;76.06
78902;DHT22;70441;44.758;37.686;2024-03-22T00:13:47;7.22;76.02
78902;DHT22;70441;44.758;37.686;2024-03-22T00:14:49;7.20;76.20
78902;DHT22;70441;44.758;37.686;2024-03-22T00:15:52;7.19;75.78
78902;DHT22;70441;44.758;37.686;2024-03-22T00:16:53;7.16;75.89
78902;DHT22;70441;44.758;37.686;2024-03-22T00:17:56;7.19;76.07
78902;DHT22;70441;44.758;37.686;2024-03-22T00:18:57;7.14;76.06
78902;DHT22;70441;44.758;37.686;2024-03-22T00:20:00;7.11;75.99
78902;DHT22;70441;44.758;37.686;2024-03-22T00:21:01;7.08;75.86
78902;DHT22;70441;44.758;37.686;2024-03-22T00:22:03;7.14;77.05
78902;DHT22;70441;44.758;37.686;2024-03-22T00:23:05;7.27;76.40
78902;DHT22;70441;44.758;37.686;2024-03-22T00:24:06;7.32;75.67
78902;DHT22;70441;44.758;37.686;2024-03-22T00:25:08;7.26;75.05
78902;DHT22;70441;44.758;37.686;2024-03-22T00:26:09;7.20;75.06
78902;DHT22;70441;44.758;37.686;2024-03-22T00:27:11;7.14;75.11
78902;DHT22;70441;44.758;37.686;2024-03-22T00:28:13;7.12;75.82
78902;DHT22;70441;44.758;37.686;2024-03-22T00:29:15;7.20;76.08
78902;DHT22;70441;44.758;37.686;2024-03-22T00:30:16;7.22;76.06
78902;DHT22;70441;44.758;37.686;2024-03-22T00:31:18;7.29;75.57
78902;DHT22;70441;44.758;37.686;2024-03-22T00:32:19;7.23;75.09
78902;DHT22;70441;44.758;37.686;2024-03-22T00:33:21;7.20;75.20
78902;DHT22;70441;44.758;37.686;2024-03-22T00:34:22;7.27;75.76
78902;DHT22;70441;44.758;37.686;2024-03-22T00:35:24;7.27;74.90
78902;DHT22;70441;44.758;37.686;2024-03-22T00:36:25;7.25;75.03
78902;DHT22;70441;44.758;37.686;2024-03-22T00:37:27;7.25;74.75
78902;DHT22;70441;44.758;37.686;2024-03-22T00:38:29;7.18;74.72
78902;DHT22;70441;44.758;37.686;2024-03-22T00:39:30;7.14;75.14
78902;DHT22;70441;44.758;37.686;2024-03-22T00:40:33;7.12;75.39
78902;DHT22;70441;44.758;37.686;2024-03-22T00:41:34;7.11;75.53
78902;DHT22;70441;44.758;37.686;2024-03-22T00:42:35;7.11;75.35
78902;DHT22;70441;44.758;37.686;2024-03-22T00:43:37;7.09;75.50
78902;DHT22;70441;44.758;37.686;2024-03-22T00:44:38;7.08;75.49
78902;DHT22;70441;44.758;37.686;2024-03-22T00:45:41;7.05;75.51
78902;DHT22;70441;44.758;37.686;2024-03-22T00:46:43;7.07;75.44
78902;DHT22;70441;44.758;37.686;2024-03-22T00:47:44;7.05;75.47
78902;DHT22;70441;44.758;37.686;2024-03-22T00:48:46;7.05;75.46
78902;DHT22;70441;44.758;37.686;2024-03-22T00:49:47;7.04;75.54
78902;DHT22;70441;44.758;37.686;2024-03-22T00:50:49;7.04;75.18
78902;DHT22;70441;44.758;37.686;2024-03-22T00:51:50;6.98;75.11
78902;DHT22;70441;44.758;37.686;2024-03-22T00:52:52;6.94;75.47
78902;DHT22;70441;44.758;37.686;2024-03-22T00:53:53;6.92;75.32
78902;DHT22;70441;44.758;37.686;2024-03-22T00:54:55;6.91;75.19
78902;DHT22;70441;44.758;37.686;2024-03-22T00:55:56;6.85;75.39
78902;DHT22;70441;44.758;37.686;2024-03-22T00:57:00;6.90;75.39
78902;DHT22;70441;44.758;37.686;2024-03-22T00:58:01;6.85;75.09
78902;DHT22;70441;44.758;37.686;2024-03-22T00:59:02;6.81;75.20
78902;DHT22;70441;44.758;37.686;2024-03-22T01:00:04;6.81;75.32
78902;DHT22;70441;44.758;37.686;2024-03-22T01:01:06;6.84;76.08
78902;DHT22;70441;44.758;37.686;2024-03-22T01:02:07;6.90;75.89
78902;DHT22;70441;44.758;37.686;2024-03-22T01:03:09;6.98;75.75
78902;DHT22;70441;44.758;37.686;2024-03-22T01:04:10;6.95;75.16
78902;DHT22;70441;44.758;37.686;2024-03-22T01:05:12;6.95;75.53
78902;DHT22;70441;44.758;37.686;2024-03-22T01:06:13;6.95;75.05
78902;DHT22;70441;44.758;37.686;2024-03-22T01:07:15;6.92;75.15
78902;DHT22;70441;44.758;37.686;2024-03-22T01:08:16;6.95;75.01
78902;DHT22;70441;44.758;37.686;2024-03-22T01:09:17;6.90;74.69
78902;DHT22;70441;44.758;37.686;2024-03-22T01:10:20;6.90;74.78
78902;DHT22;70441;44.758;37.686;2024-03-22T01:11:22;6.87;74.89
78902;DHT22;70441;44.758;37.686;2024-03-22T01:12:23;6.88;75.08
78902;DHT22;70441;44.758;37.686;2024-03-22T01:13:25;6.90;75.30
78902;DHT22;70441;44.758;37.686;2024-03-22T01:14:27;6.90;75.14
78902;DHT22;70441;44.758;37.686;2024-03-22T01:15:28;6.87;74.81
78902;DHT22;70441;44.758;37.686;2024-03-22T01:16:30;6.81;74.44
78902;DHT22;70441;44.758;37.686;2024-03-22T01:17:31;6.77;74.61
78902;DHT22;70441;44.758;37.686;2024-03-22T01:18:32;6.73;74.50
78902;DHT22;70441;44.758;37.686;2024-03-22T01:19:34;6.72;74.77
78902;DHT22;70441;44.758;37.686;2024-03-22T01:20:35;6.73;75.51
78902;DHT22;70441;44.758;37.686;2024-03-22T01:21:37;6.76;75.31
78902;DHT22;70441;44.758;37.686;2024-03-22T01:22:38;6.76;75.25
78902;DHT22;70441;44.758;37.686;2024-03-22T01:23:41;6.74;74.91
78902;DHT22;70441;44.758;37.686;2024-03-22T01:24:42;6.72;75.00
78902;DHT22;70441;44.758;37.686;2024-03-22T01:25:44;6.70;74.89
78902;DHT22;70441;44.758;37.686;2024-03-22T01:26:46;6.69;74.98
78902;DHT22;70441;44.758;37.686;2024-03-22T01:27:48;6.72;75.00
78902;DHT22;70441;44.758;37.686;2024-03-22T01:28:49;6.69;74.89
78902;DHT22;70441;44.758;37.686;2024-03-22T01:29:50;6.67;74.67
78902;DHT22;70441;44.758;37.686;2024-03-22T01:30:52;6.63;74.70
78902;DHT22;70441;44.758;37.686;2024-03-22T01:31:53;6.66;75.40
78902;DHT22;70441;44.758;37.686;2024-03-22T01:32:55;6.66;74.93
78902;DHT22;70441;44.758;37.686;2024-03-22T01:33:56;6.60;74.54
78902;DHT22;70441;44.758;37.686;2024-03-22T01:34:58;6.53;74.92
78902;DHT22;70441;44.758;37.686;2024-03-22T01:35:59;6.53;74.91
78902;DHT22;70441;44.758;37.686;2024-03-22T01:37:01;6.50;74.89
78902;DHT22;70441;44.758;37.686;2024-03-22T01:38:04;6.48;75.47
78902;DHT22;70441;44.758;37.686;2024-03-22T01:39:06;6.53;75.52
78902;DHT22;70441;44.758;37.686;2024-03-22T01:40:08;6.49;75.22
78902;DHT22;70441;44.758;37.686;2024-03-22T01:41:10;6.48;75.27
78902;DHT22;70441;44.758;37.686;2024-03-22T01:42:12;6.49;75.41
78902;DHT22;70441;44.758;37.686;2024-03-22T01:43:13;6.49;75.58
78902;DHT22;70441;44.758;37.686;2024-03-22T01:44:15;6.46;75.32
78902;DHT22;70441;44.758;37.686;2024-03-22T01:45:17;6.43;75.24
78902;DHT22;70441;44.758;37.686;2024-03-22T01:46:18;6.39;75.04
78902;DHT22;70441;44.758;37.686;2024-03-22T01:47:20;6.33;75.27
78902;DHT22;70441;44.758;37.686;2024-03-22T01:48:22;6.31;75.27
78902;DHT22;70441;44.758;37.686;2024-03-22T01:49:24;6.26;75.46
78902;DHT22;70441;44.758;37.686;2024-03-22T01:50:27;6.24;75.41
78902;DHT22;70441;44.758;37.686;2024-03-22T01:51:29;6.14;75.16
78902;DHT22;70441;44.758;37.686;2024-03-22T01:52:30;6.10;75.52
78902;DHT22;70441;44.758;37.686;2024-03-22T01:53:33;6.07;75.32
78902;DHT22;70441;44.758;37.686;2024-03-22T01:54:35;6.05;75.48
78902;DHT22;70441;44.758;37.686;2024-03-22T01:55:37;5.97;75.52
78902;DHT22;70441;44.758;37.686;2024-03-22T01:56:39;5.94;75.62
78902;DHT22;70441;44.758;37.686;2024-03-22T01:57:41;5.91;75.87
78902;DHT22;70441;44.758;37.686;2024-03-22T01:58:47;5.86;76.08
78902;DHT22;70441;44.758;37.686;2024-03-22T01:59:49;5.90;76.48
78902;DHT22;70441;44.758;37.686;2024-03-22T02:00:52;5.91;76.53
78902;DHT22;70441;44.758;37.686;2024-03-22T02:01:54;5.90;76.72
78902;DHT22;70441;44.758;37.686;2024-03-22T02:02:55;5.97;76.98
78902;DHT22;70441;44.758;37.686;2024-03-22T02:03:57;5.96;75.84
78902;DHT22;70441;44.758;37.686;2024-03-22T02:04:58;5.89;75.64
78902;DHT22;70441;44.758;37.686;2024-03-22T02:06:00;5.86;75.83
78902;DHT22;70441;44.758;37.686;2024-03-22T02:07:01;5.79;75.90
78902;DHT22;70441;44.758;37.686;2024-03-22T02:08:03;5.77;75.73
78902;DHT22;70441;44.758;37.686;2024-03-22T02:09:04;5.72;75.70
78902;DHT22;70441;44.758;37.686;2024-03-22T02:10:06;5.66;75.75
78902;DHT22;70441;44.758;37.686;2024-03-22T02:11:09;5.63;75.84
78902;DHT22;70441;44.758;37.686;2024-03-22T02:12:11;5.58;75.97
78902;DHT22;70441;44.758;37.686;2024-03-22T02:13:12;5.54;76.58
78902;DHT22;70441;44.758;37.686;2024-03-22T02:14:14;5.56;76.47
78902;DHT22;70441;44.758;37.686;2024-03-22T02:15:15;5.54;76.40
78902;DHT22;70441;44.758;37.686;2024-03-22T02:16:17;5.52;76.41
78902;DHT22;70441;44.758;37.686;2024-03-22T02:17:18;5.51;76.46
78902;DHT22;70441;44.758;37.686;2024-03-22T02:18:19;5.45;76.30
78902;DHT22;70441;44.758;37.686;2024-03-22T02:19:21;5.49;76.84
78902;DHT22;70441;44.758;37.686;2024-03-22T02:20:22;5.52;76.75
78902;DHT22;70441;44.758;37.686;2024-03-22T02:21:24;5.51;76.59
78902;DHT22;70441;44.758;37.686;2024-03-22T02:22:26;5.52;76.46
78902;DHT22;70441;44.758;37.686;2024-03-22T02:23:35;5.47;76.20
78902;DHT22;70441;44.758;37.686;2024-03-22T02:24:36;5.47;76.43
78902;DHT22;70441;44.758;37.686;2024-03-22T02:25:38;5.47;76.77
78902;DHT22;70441;44.758;37.686;2024-03-22T02:26:39;5.47;76.91
78902;DHT22;70441;44.758;37.686;2024-03-22T02:27:41;5.55;76.78
78902;DHT22;70441;44.758;37.686;2024-03-22T02:28:42;5.52;76.30
78902;DHT22;70441;44.758;37.686;2024-03-22T02:29:44;5.51;76.23
78902;DHT22;70441;44.758;37.686;2024-03-22T02:30:45;5.44;76.50
78902;DHT22;70441;44.758;37.686;2024-03-22T02:31:46;5.44;77.01
78902;DHT22;70441;44.758;37.686;2024-03-22T02:32:48;5.44;76.82
78902;DHT22;70441;44.758;37.686;2024-03-22T02:33:49;5.45;76.82
78902;DHT22;70441;44.758;37.686;2024-03-22T02:34:51;5.52;77.09
78902;DHT22;70441;44.758;37.686;2024-03-22T02:35:52;5.56;76.75
78902;DHT22;70441;44.758;37.686;2024-03-22T02:36:54;5.56;76.53
78902;DHT22;70441;44.758;37.686;2024-03-22T02:37:55;5.62;76.46
78902;DHT22;70441;44.758;37.686;2024-03-22T02:38:59;5.59;76.13
78902;DHT22;70441;44.758;37.686;2024-03-22T02:40:01;5.62;76.04
78902;DHT22;70441;44.758;37.686;2024-03-22T02:41:03;5.58;75.63
78902;DHT22;70441;44.758;37.686;2024-03-22T02:42:04;5.58;75.93
78902;DHT22;70441;44.758;37.686;2024-03-22T02:43:06;5.56;75.93
78902;DHT22;70441;44.758;37.686;2024-03-22T02:44:07;5.59;75.90
78902;DHT22;70441;44.758;37.686;2024-03-22T02:45:09;5.62;76.05
78902;DHT22;70441;44.758;37.686;2024-03-22T02:46:10;5.66;76.00
78902;DHT22;70441;44.758;37.686;2024-03-22T02:47:11;5.65;76.00
78902;DHT22;70441;44.758;37.686;2024-03-22T02:48:16;5.66;75.86
78902;DHT22;70441;44.758;37.686;2024-03-22T02:49:18;5.69;75.84
78902;DHT22;70441;44.758;37.686;2024-03-22T02:50:19;5.72;75.70
78902;DHT22;70441;44.758;37.686;2024-03-22T02:51:21;5.73;75.67
78902;DHT22;70441;44.758;37.686;2024-03-22T02:52:22;5.77;75.65
78902;DHT22;70441;44.758;37.686;2024-03-22T02:53:23;5.83;75.31
78902;DHT22;70441;44.758;37.686;2024-03-22T02:54:25;5.81;75.10
78902;DHT22;70441;44.758;37.686;2024-03-22T02:55:27;5.80;74.55
78902;DHT22;70441;44.758;37.686;2024-03-22T02:56:28;5.70;74.54
78902;DHT22;70441;44.758;37.686;2024-03-22T02:57:29;5.67;75.33
78902;DHT22;70441;44.758;37.686;2024-03-22T02:58:31;5.70;75.07
78902;DHT22;70441;44.758;37.686;2024-03-22T02:59:32;5.67;75.02
78902;DHT22;70441;44.758;37.686;2024-03-22T03:00:39;5.65;74.85
78902;DHT22;70441;44.758;37.686;2024-03-22T03:01:41;5.48;75.05
78902;DHT22;70441;44.758;37.686;2024-03-22T03:02:42;5.42;75.63
78902;DHT22;70441;44.758;37.686;2024-03-22T03:03:44;5.42;76.09
78902;DHT22;70441;44.758;37.686;2024-03-22T03:04:45;5.39;75.81
78902;DHT22;70441;44.758;37.686;2024-03-22T03:05:46;5.41;76.02
78902;DHT22;70441;44.758;37.686;2024-03-22T03:06:48;5.38;75.63
78902;DHT22;70441;44.758;37.686;2024-03-22T03:07:49;5.35;75.88
78902;DHT22;70441;44.758;37.686;2024-03-22T03:08:51;5.38;75.56
78902;DHT22;70441;44.758;37.686;2024-03-22T03:09:53;5.32;75.54
78902;DHT22;70441;44.758;37.686;2024-03-22T03:10:54;5.34;75.75
78902;DHT22;70441;44.758;37.686;2024-03-22T03:11:56;5.28;75.58
78902;DHT22;70441;44.758;37.686;2024-03-22T03:12:57;5.26;75.87
78902;DHT22;70441;44.758;37.686;2024-03-22T03:13:59;5.19;75.91
78902;DHT22;70441;44.758;37.686;2024-03-22T03:15:01;5.16;76.39
78902;DHT22;70441;44.758;37.686;2024-03-22T03:16:05;5.20;76.24
78902;DHT22;70441;44.758;37.686;2024-03-22T03:17:06;5.23;76.26
78902;DHT22;70441;44.758;37.686;2024-03-22T03:18:08;5.26;76.08
78902;DHT22;70441;44.758;37.686;2024-03-22T03:19:09;5.27;76.06
78902;DHT22;70441;44.758;37.686;2024-03-22T03:20:11;5.28;75.97
78902;DHT22;70441;44.758;37.686;2024-03-22T03:21:14;5.26;75.82
78902;DHT22;70441;44.758;37.686;2024-03-22T03:22:16;5.30;75.69
78902;DHT22;70441;44.758;37.686;2024-03-22T03:23:17;5.28;75.53
78902;DHT22;70441;44.758;37.686;2024-03-22T03:24:19;5.24;75.46
78902;DHT22;70441;44.758;37.686;2024-03-22T03:25:20;5.24;75.65
78902;DHT22;70441;44.758;37.686;2024-03-22T03:26:21;5.24;75.81
78902;DHT22;70441;44.758;37.686;2024-03-22T03:27:23;5.24;75.97
78902;DHT22;70441;44.758;37.686;2024-03-22T03:28:24;5.24;76.19
78902;DHT22;70441;44.758;37.686;2024-03-22T03:29:27;5.26;76.23
78902;DHT22;70441;44.758;37.686;2024-03-22T03:30:28;5.20;76.00
78902;DHT22;70441;44.758;37.686;2024-03-22T03:31:29;5.19;76.10
78902;DHT22;70441;44.758;37.686;2024-03-22T03:32:31;5.16;76.22
78902;DHT22;70441;44.758;37.686;2024-03-22T03:33:32;5.16;76.44
78902;DHT22;70441;44.758;37.686;2024-03-22T03:34:34;5.14;76.50
78902;DHT22;70441;44.758;37.686;2024-03-22T03:35:35;5.16;76.59
78902;DHT22;70441;44.758;37.686;2024-03-22T03:36:37;5.16;76.46
78902;DHT22;70441;44.758;37.686;2024-03-22T03:37:40;5.14;76.33
78902;DHT22;70441;44.758;37.686;2024-03-22T03:38:42;5.12;76.40
78902;DHT22;70441;44.758;37.686;2024-03-22T03:39:43;5.12;76.62
78902;DHT22;70441;44.758;37.686;2024-03-22T03:40:45;5.10;76.51
78902;DHT22;70441;44.758;37.686;2024-03-22T03:41:46;5.06;76.45
78902;DHT22;70441;44.758;37.686;2024-03-22T03:42:48;5.00;76.52
78902;DHT22;70441;44.758;37.686;2024-03-22T03:43:49;5.04;76.90
78902;DHT22;70441;44.758;37.686;2024-03-22T03:44:50;5.00;76.71
78902;DHT22;70441;44.758;37.686;2024-03-22T03:45:55;5.00;76.87
78902;DHT22;70441;44.758;37.686;2024-03-22T03:47:00;5.01;77.05
78902;DHT22;70441;44.758;37.686;2024-03-22T03:48:02;5.01;76.94
78902;DHT22;70441;44.758;37.686;2024-03-22T03:49:03;4.99;76.91
78902;DHT22;70441;44.758;37.686;2024-03-22T03:50:05;4.92;77.13
78902;DHT22;70441;44.758;37.686;2024-03-22T03:51:07;4.90;77.61
78902;DHT22;70441;44.758;37.686;2024-03-22T03:52:09;4.89;77.60
78902;DHT22;70441;44.758;37.686;2024-03-22T03:53:10;4.86;77.95
78902;DHT22;70441;44.758;37.686;2024-03-22T03:54:12;4.90;78.08
78902;DHT22;70441;44.758;37.686;2024-03-22T03:55:14;4.93;77.90
78902;DHT22;70441;44.758;37.686;2024-03-22T03:56:15;4.95;77.76
78902;DHT22;70441;44.758;37.686;2024-03-22T03:57:16;4.90;77.21
78902;DHT22;70441;44.758;37.686;2024-03-22T03:58:18;4.88;77.78
78902;DHT22;70441;44.758;37.686;2024-03-22T03:59:20;4.79;77.67
78902;DHT22;70441;44.758;37.686;2024-03-22T04:00:21;4.79;77.85
78902;DHT22;70441;44.758;37.686;2024-03-22T04:01:22;4.73;78.06
78902;DHT22;70441;44.758;37.686;2024-03-22T04:02:24;4.75;78.43
78902;DHT22;70441;44.758;37.686;2024-03-22T04:03:26;4.69;78.36
78902;DHT22;70441;44.758;37.686;2024-03-22T04:04:28;4.72;78.65
78902;DHT22;70441;44.758;37.686;2024-03-22T04:05:29;4.76;79.03
78902;DHT22;70441;44.758;37.686;2024-03-22T04:06:30;4.80;79.08
78902;DHT22;70441;44.758;37.686;2024-03-22T04:07:32;4.89;78.96
78902;DHT22;70441;44.758;37.686;2024-03-22T04:08:34;4.89;78.79
78902;DHT22;70441;44.758;37.686;2024-03-22T04:09:35;4.95;78.65
78902;DHT22;70441;44.758;37.686;2024-03-22T04:10:36;4.93;78.03
78902;DHT22;70441;44.758;37.686;2024-03-22T04:11:38;4.89;77.88
78902;DHT22;70441;44.758;37.686;2024-03-22T04:12:39;4.88;77.69
78902;DHT22;70441;44.758;37.686;2024-03-22T04:13:40;4.86;77.91
78902;DHT22;70441;44.758;37.686;2024-03-22T04:14:42;4.86;78.09
78902;DHT22;70441;44.758;37.686;2024-03-22T04:15:43;4.89;78.01
78902;DHT22;70441;44.758;37.686;2024-03-22T04:16:45;4.88;78.11
78902;DHT22;70441;44.758;37.686;2024-03-22T04:17:47;4.86;78.05
78902;DHT22;70441;44.758;37.686;2024-03-22T04:18:48;4.85;78.13
78902;DHT22;70441;44.758;37.686;2024-03-22T04:19:50;4.86;78.17
78902;DHT22;70441;44.758;37.686;2024-03-22T04:20:58;4.80;77.93
78902;DHT22;70441;44.758;37.686;2024-03-22T04:22:00;4.80;78.07
78902;DHT22;70441;44.758;37.686;2024-03-22T04:23:01;4.79;78.01
78902;DHT22;70441;44.758;37.686;2024-03-22T04:24:03;4.79;77.85
78902;DHT22;70441;44.758;37.686;2024-03-22T04:25:05;4.76;78.21
78902;DHT22;70441;44.758;37.686;2024-03-22T04:26:07;4.76;78.46
78902;DHT22;70441;44.758;37.686;2024-03-22T04:27:09;4.75;78.28
78902;DHT22;70441;44.758;37.686;2024-03-22T04:28:10;4.75;78.27
78902;DHT22;70441;44.758;37.686;2024-03-22T04:29:12;4.73;78.48
78902;DHT22;70441;44.758;37.686;2024-03-22T04:30:13;4.73;78.45
78902;DHT22;70441;44.758;37.686;2024-03-22T04:31:14;4.71;78.39
78902;DHT22;70441;44.758;37.686;2024-03-22T04:32:16;4.67;78.61
78902;DHT22;70441;44.758;37.686;2024-03-22T04:33:19;4.67;78.56
78902;DHT22;70441;44.758;37.686;2024-03-22T04:34:20;4.67;78.98
78902;DHT22;70441;44.758;37.686;2024-03-22T04:35:21;4.65;78.81
78902;DHT22;70441;44.758;37.686;2024-03-22T04:36:23;4.61;78.74
78902;DHT22;70441;44.758;37.686;2024-03-22T04:37:24;4.57;78.70
78902;DHT22;70441;44.758;37.686;2024-03-22T04:38:27;4.54;78.89
78902;DHT22;70441;44.758;37.686;2024-03-22T04:39:29;4.54;79.22
78902;DHT22;70441;44.758;37.686;2024-03-22T04:40:30;4.53;79.47
78902;DHT22;70441;44.758;37.686;2024-03-22T04:41:31;4.53;79.62
78902;DHT22;70441;44.758;37.686;2024-03-22T04:42:34;4.48;79.42
78902;DHT22;70441;44.758;37.686;2024-03-22T04:43:35;4.45;79.73
78902;DHT22;70441;44.758;37.686;2024-03-22T04:44:37;4.45;79.89
78902;DHT22;70441;44.758;37.686;2024-03-22T04:45:38;4.43;79.97
78902;DHT22;70441;44.758;37.686;2024-03-22T04:46:39;4.38;80.08
78902;DHT22;70441;44.758;37.686;2024-03-22T04:47:41;4.40;80.32
78902;DHT22;70441;44.758;37.686;2024-03-22T04:48:43;4.41;80.65
78902;DHT22;70441;44.758;37.686;2024-03-22T04:49:45;4.40;80.88
78902;DHT22;70441;44.758;37.686;2024-03-22T04:50:47;4.38;80.88
78902;DHT22;70441;44.758;37.686;2024-03-22T04:51:51;4.37;80.67
78902;DHT22;70441;44.758;37.686;2024-03-22T04:52:52;4.36;80.60
78902;DHT22;70441;44.758;37.686;2024-03-22T04:53:53;4.33;80.48
78902;DHT22;70441;44.758;37.686;2024-03-22T04:54:55;4.32;80.45
78902;DHT22;70441;44.758;37.686;2024-03-22T04:55:57;4.32;80.83
78902;DHT22;70441;44.758;37.686;2024-03-22T04:56:58;4.33;81.07
78902;DHT22;70441;44.758;37.686;2024-03-22T04:58:00;4.34;80.94
78902;DHT22;70441;44.758;37.686;2024-03-22T04:59:02;4.36;80.77
78902;DHT22;70441;44.758;37.686;2024-03-22T05:00:04;4.32;80.84
78902;DHT22;70441;44.758;37.686;2024-03-22T05:01:08;4.29;80.73
78902;DHT22;70441;44.758;37.686;2024-03-22T05:02:09;4.26;80.83
78902;DHT22;70441;44.758;37.686;2024-03-22T05:03:11;4.24;80.98
78902;DHT22;70441;44.758;37.686;2024-03-22T05:04:13;4.30;81.23
78902;DHT22;70441;44.758;37.686;2024-03-22T05:05:14;4.29;81.22
78902;DHT22;70441;44.758;37.686;2024-03-22T05:06:16;4.27;80.96
78902;DHT22;70441;44.758;37.686;2024-03-22T05:07:17;4.27;80.67
78902;DHT22;70441;44.758;37.686;2024-03-22T05:08:18;4.27;80.81
78902;DHT22;70441;44.758;37.686;2024-03-22T05:09:20;4.29;80.97
78902;DHT22;70441;44.758;37.686;2024-03-22T05:10:22;4.30;81.07
78902;DHT22;70441;44.758;37.686;2024-03-22T05:11:23;4.34;81.18
78902;DHT22;70441;44.758;37.686;2024-03-22T05:12:25;4.32;81.01
78902;DHT22;70441;44.758;37.686;2024-03-22T05:13:26;4.32;81.10
78902;DHT22;70441;44.758;37.686;2024-03-22T05:14:28;4.34;81.16
78902;DHT22;70441;44.758;37.686;2024-03-22T05:15:30;4.36;80.92
78902;DHT22;70441;44.758;37.686;2024-03-22T05:16:32;4.34;80.97
78902;DHT22;70441;44.758;37.686;2024-03-22T05:17:34;4.38;80.96
78902;DHT22;70441;44.758;37.686;2024-03-22T05:18:35;4.37;81.03
78902;DHT22;70441;44.758;37.686;2024-03-22T05:19:37;4.38;81.04
78902;DHT22;70441;44.758;37.686;2024-03-22T05:20:38;4.41;81.01
78902;DHT22;70441;44.758;37.686;2024-03-22T05:21:39;4.45;81.32
78902;DHT22;70441;44.758;37.686;2024-03-22T05:22:41;4.50;80.90
78902;DHT22;70441;44.758;37.686;2024-03-22T05:23:43;4.48;80.85
78902;DHT22;70441;44.758;37.686;2024-03-22T05:24:44;4.50;80.81
78902;DHT22;70441;44.758;37.686;2024-03-22T05:25:46;4.40;80.12
78902;DHT22;70441;44.758;37.686;2024-03-22T05:26:47;4.26;80.52
78902;DHT22;70441;44.758;37.686;2024-03-22T05:27:49;4.19;81.14
78902;DHT22;70441;44.758;37.686;2024-03-22T05:28:50;4.12;81.25
78902;DHT22;70441;44.758;37.686;2024-03-22T05:29:52;4.12;81.84
78902;DHT22;70441;44.758;37.686;2024-03-22T05:30:53;4.10;81.79
78902;DHT22;70441;44.758;37.686;2024-03-22T05:31:54;4.07;82.04
78902;DHT22;70441;44.758;37.686;2024-03-22T05:32:56;4.13;82.44
78902;DHT22;70441;44.758;37.686;2024-03-22T05:33:59;4.19;82.47
78902;DHT22;70441;44.758;37.686;2024-03-22T05:35:00;4.26;82.27
78902;DHT22;70441;44.758;37.686;2024-03-22T05:36:02;4.29;81.85
78902;DHT22;70441;44.758;37.686;2024-03-22T05:37:04;4.34;81.69
78902;DHT22;70441;44.758;37.686;2024-03-22T05:38:05;4.37;81.59
78902;DHT22;70441;44.758;37.686;2024-03-22T05:39:07;4.41;81.48
78902;DHT22;70441;44.758;37.686;2024-03-22T05:40:09;4.44;81.46
78902;DHT22;70441;44.758;37.686;2024-03-22T05:41:11;4.48;81.23
78902;DHT22;70441;44.758;37.686;2024-03-22T05:42:13;4.51;81.29
78902;DHT22;70441;44.758;37.686;2024-03-22T05:43:14;4.58;81.27
78902;DHT22;70441;44.758;37.686;2024-03-22T05:44:16;4.64;81.34
78902;DHT22;70441;44.758;37.686;2024-03-22T05:45:18;4.71;81.39
78902;DHT22;70441;44.758;37.686;2024-03-22T05:46:19;4.72;81.23
78902;DHT22;70441;44.758;37.686;2024-03-22T05:47:22;4.72;80.79
78902;DHT22;70441;44.758;37.686;2024-03-22T05:48:23;4.75;80.13
78902;DHT22;70441;44.758;37.686;2024-03-22T05:49:25;4.73;80.35
78902;DHT22;70441;44.758;37.686;2024-03-22T05:50:27;4.71;80.69
78902;DHT22;70441;44.758;37.686;2024-03-22T05:51:28;4.78;80.52
78902;DHT22;70441;44.758;37.686;2024-03-22T05:52:33;4.79;80.46
78902;DHT22;70441;44.758;37.686;2024-03-22T05:53:34;4.80;80.34
78902;DHT22;70441;44.758;37.686;2024-03-22T05:54:36;4.82;80.19
78902;DHT22;70441;44.758;37.686;2024-03-22T05:55:38;4.83;79.97
78902;DHT22;70441;44.758;37.686;2024-03-22T05:56:39;4.78;79.51
78902;DHT22;70441;44.758;37.686;2024-03-22T05:57:41;4.78;79.66
78902;DHT22;70441;44.758;37.686;2024-03-22T05:58:43;4.75;79.62
78902;DHT22;70441;44.758;37.686;2024-03-22T05:59:45;4.68;79.11
78902;DHT22;70441;44.758;37.686;2024-03-22T06:00:46;4.64;79.14
78902;DHT22;70441;44.758;37.686;2024-03-22T06:01:49;4.61;79.57
78902;DHT22;70441;44.758;37.686;2024-03-22T06:02:50;4.54;79.62
78902;DHT22;70441;44.758;37.686;2024-03-22T06:03:52;4.53;79.75
78902;DHT22;70441;44.758;37.686;2024-03-22T06:04:53;4.47;79.65
78902;DHT22;70441;44.758;37.686;2024-03-22T06:05:55;4.43;80.01
78902;DHT22;70441;44.758;37.686;2024-03-22T06:07:00;4.45;80.07
78902;DHT22;70441;44.758;37.686;2024-03-22T06:08:05;4.44;80.25
78902;DHT22;70441;44.758;37.686;2024-03-22T06:09:06;4.43;80.43
78902;DHT22;70441;44.758;37.686;2024-03-22T06:10:12;4.40;80.05
78902;DHT22;70441;44.758;37.686;2024-03-22T06:11:13;4.41;80.51
78902;DHT22;70441;44.758;37.686;2024-03-22T06:12:15;4.41;80.51
78902;DHT22;70441;44.758;37.686;2024-03-22T06:13:17;4.37;80.43
78902;DHT22;70441;44.758;37.686;2024-03-22T06:14:18;4.40;80.51
78902;DHT22;70441;44.758;37.686;2024-03-22T06:15:20;4.37;80.53
78902;DHT22;70441;44.758;37.686;2024-03-22T06:16:22;4.36;80.81
78902;DHT22;70441;44.758;37.686;2024-03-22T06:17:24;4.34;80.94
78902;DHT22;70441;44.758;37.686;2024-03-22T06:18:25;4.34;80.95
78902;DHT22;70441;44.758;37.686;2024-03-22T06:19:26;4.34;81.10
78902;DHT22;70441;44.758;37.686;2024-03-22T06:20:28;4.33;81.11
78902;DHT22;70441;44.758;37.686;2024-03-22T06:21:29;4.33;81.11
78902;DHT22;70441;44.758;37.686;2024-03-22T06:22:30;4.34;81.27
78902;DHT22;70441;44.758;37.686;2024-03-22T06:23:32;4.37;81.33
78902;DHT22;70441;44.758;37.686;2024-03-22T06:24:34;4.33;81.17
78902;DHT22;70441;44.758;37.686;2024-03-22T06:25:35;4.32;81.18
78902;DHT22;70441;44.758;37.686;2024-03-22T06:26:37;4.32;81.46
78902;DHT22;70441;44.758;37.686;2024-03-22T06:27:38;4.26;81.32
78902;DHT22;70441;44.758;37.686;2024-03-22T06:28:40;4.26;81.25
78902;DHT22;70441;44.758;37.686;2024-03-22T06:29:41;4.27;81.43